Time;durP1;ratioP1;P1;durP2;ratioP2;P2;SDS_P1;SDS_P2;PMS_P1;PMS_P2;Temp;Humidity;BMP_temperature;BMP_pressure;BME280_temperature;BME280_humidity;BME280_pressure;Samples;Min_cycle;Max_cycle;Signal;HPM_P1;HPM_P2
2022/07/31 00:00:50;;;;;;;6.93;4.78;;;27.90;73.60;;;;;;5043221;28;20205;-77
2022/07/31 00:03:18;;;;;;;8.25;4.68;;;27.90;73.70;;;;;;5034917;28;20199;-76
2022/07/31 00:05:47;;;;;;;8.68;4.68;;;27.90;73.70;;;;;;5029794;28;20199;-76
2022/07/31 00:08:17;;;;;;;8.40;5.43;;;27.80;73.70;;;;;;5038912;28;20183;-76
2022/07/31 00:10:45;;;;;;;8.20;5.13;;;27.80;74.40;;;;;;5042409;28;20213;-76
2022/07/31 00:13:13;;;;;;;8.10;5.30;;;27.80;74.60;;;;;;5049951;28;20191;-77
2022/07/31 00:15:42;;;;;;;9.05;5.50;;;27.70;75.20;;;;;;5039200;28;20221;-77
2022/07/31 00:18:10;;;;;;;8.32;4.90;;;27.70;75.80;;;;;;5042534;28;20672;-76
2022/07/31 00:20:38;;;;;;;10.75;5.43;;;27.60;76.30;;;;;;5041413;28;20237;-78
2022/07/31 00:23:07;;;;;;;7.45;5.50;;;27.60;76.50;;;;;;5041934;28;20197;-77
2022/07/31 00:25:39;;;;;;;7.50;5.05;;;27.60;77.20;;;;;;5045990;28;20195;-77
2022/07/31 00:28:07;;;;;;;7.60;4.45;;;27.50;77.70;;;;;;5041292;28;20191;-76
2022/07/31 00:30:36;;;;;;;8.20;5.13;;;27.50;77.80;;;;;;5037523;28;20824;-77
2022/07/31 00:33:04;;;;;;;8.52;5.13;;;27.40;78.10;;;;;;5039666;28;20202;-76
2022/07/31 00:35:33;;;;;;;7.18;5.30;;;27.40;79.10;;;;;;5042783;28;20225;-77
2022/07/31 00:38:01;;;;;;;6.95;5.07;;;27.40;79.00;;;;;;5033502;28;20199;-77
2022/07/31 00:40:51;;;;;;;7.72;5.22;;;27.30;79.20;;;;;;5044416;28;20203;-77
2022/07/31 00:43:20;;;;;;;6.63;4.85;;;27.30;79.50;;;;;;5048409;28;20187;-77
2022/07/31 00:45:51;;;;;;;7.35;5.30;;;27.30;79.50;;;;;;5050315;28;20192;-77
2022/07/31 00:48:26;;;;;;;8.48;5.47;;;27.20;79.20;;;;;;5045488;28;20187;-76
2022/07/31 00:50:55;;;;;;;8.88;5.38;;;27.20;79.20;;;;;;5047945;28;20644;-75
2022/07/31 00:53:24;;;;;;;8.75;5.25;;;27.20;79.50;;;;;;5038932;28;20196;-77
2022/07/31 00:55:55;;;;;;;12.75;5.78;;;27.20;79.50;;;;;;5039736;28;20609;-77
2022/07/31 00:58:24;;;;;;;6.65;5.30;;;27.20;79.60;;;;;;5045406;28;20195;-77
2022/07/31 01:00:53;;;;;;;9.13;6.13;;;27.20;79.70;;;;;;5044743;28;20191;-77
2022/07/31 01:03:21;;;;;;;10.38;5.90;;;27.20;80.20;;;;;;5045572;28;20218;-76
2022/07/31 01:05:50;;;;;;;7.75;6.03;;;27.10;80.90;;;;;;5040124;28;20796;-75
2022/07/31 01:08:18;;;;;;;7.57;4.85;;;27.20;81.30;;;;;;5048699;28;20197;-75
2022/07/31 01:10:57;;;;;;;8.27;4.80;;;27.10;81.10;;;;;;5040634;28;20191;-76
2022/07/31 01:13:33;;;;;;;7.65;5.88;;;27.10;81.20;;;;;;5044895;28;20193;-76
2022/07/31 01:16:03;;;;;;;10.90;5.93;;;27.10;81.70;;;;;;5042741;28;20222;-76
2022/07/31 01:18:35;;;;;;;9.50;6.28;;;27.00;82.30;;;;;;5050924;28;20194;-76
2022/07/31 01:21:07;;;;;;;11.63;5.70;;;27.00;83.20;;;;;;5047571;28;20718;-75
2022/07/31 01:23:48;;;;;;;8.65;5.60;;;27.00;83.60;;;;;;5045843;28;20270;-76
2022/07/31 01:26:38;;;;;;;11.13;5.63;;;27.00;84.90;;;;;;5042020;28;20191;-75
2022/07/31 01:29:24;;;;;;;8.50;4.78;;;26.90;84.20;;;;;;5041478;28;20597;-75
2022/07/31 01:31:58;;;;;;;8.32;4.68;;;26.90;84.60;;;;;;5038503;28;20223;-75
2022/07/31 01:34:34;;;;;;;7.72;4.72;;;26.80;84.70;;;;;;5037827;28;20205;-75
2022/07/31 01:37:08;;;;;;;6.00;4.45;;;26.80;84.60;;;;;;5047300;28;20210;-75
2022/07/31 01:39:43;;;;;;;7.38;5.32;;;26.80;85.50;;;;;;5049188;28;20241;-75
2022/07/31 01:42:16;;;;;;;13.43;6.32;;;26.70;84.50;;;;;;5051505;28;20183;-74
2022/07/31 01:44:51;;;;;;;10.15;5.72;;;26.70;84.50;;;;;;5043842;28;20805;-76
2022/07/31 01:47:21;;;;;;;11.63;5.82;;;26.60;84.20;;;;;;5044020;28;20195;-73
2022/07/31 01:49:51;;;;;;;16.05;6.40;;;26.60;84.30;;;;;;5046326;28;20191;-75
2022/07/31 01:52:21;;;;;;;9.88;5.30;;;26.50;84.10;;;;;;5047505;28;20669;-75
2022/07/31 01:54:51;;;;;;;8.15;4.97;;;26.50;84.30;;;;;;5035098;28;20203;-75
2022/07/31 01:57:22;;;;;;;7.43;4.95;;;26.50;84.50;;;;;;5038876;28;20731;-75
2022/07/31 01:59:55;;;;;;;7.22;4.22;;;26.40;84.20;;;;;;5044215;28;20187;-75
2022/07/31 02:02:25;;;;;;;8.30;4.90;;;26.40;84.40;;;;;;5040876;28;20847;-75
2022/07/31 02:04:55;;;;;;;7.45;3.80;;;26.40;84.40;;;;;;5040362;28;20191;-75
2022/07/31 02:07:24;;;;;;;7.88;4.72;;;26.30;84.30;;;;;;5042654;28;20203;-74
2022/07/31 02:09:53;;;;;;;8.73;4.85;;;26.30;84.10;;;;;;5037020;28;20203;-76
2022/07/31 02:12:28;;;;;;;6.53;4.47;;;26.30;84.50;;;;;;5040805;28;20191;-75
2022/07/31 02:15:04;;;;;;;9.77;4.72;;;26.20;84.20;;;;;;5041908;28;20190;-74
2022/07/31 02:17:33;;;;;;;8.57;4.68;;;26.20;84.20;;;;;;5050819;28;20268;-74
2022/07/31 02:20:05;;;;;;;9.50;5.22;;;26.10;84.40;;;;;;5039270;28;20195;-76
2022/07/31 02:22:34;;;;;;;8.75;5.20;;;26.10;84.70;;;;;;5038733;28;20199;-75
2022/07/31 02:25:03;;;;;;;7.18;4.68;;;26.00;84.70;;;;;;5038720;28;20198;-75
2022/07/31 02:27:33;;;;;;;9.30;5.10;;;26.00;85.00;;;;;;5036332;28;20285;-75
2022/07/31 02:30:24;;;;;;;6.97;4.78;;;25.90;85.20;;;;;;5041320;28;20851;-76
2022/07/31 02:32:53;;;;;;;6.60;4.57;;;25.80;85.00;;;;;;5040440;28;20855;-77
2022/07/31 02:35:23;;;;;;;7.00;4.88;;;25.80;85.20;;;;;;5040570;28;20579;-76
2022/07/31 02:37:53;;;;;;;7.53;5.03;;;25.80;85.20;;;;;;5043200;28;20238;-76
2022/07/31 02:40:24;;;;;;;6.82;4.60;;;25.80;85.00;;;;;;5038204;28;20230;-76
2022/07/31 02:42:53;;;;;;;6.68;4.78;;;25.80;85.50;;;;;;5040478;28;20202;-76
2022/07/31 02:45:24;;;;;;;8.18;5.60;;;25.80;85.60;;;;;;5041446;28;20194;-74
2022/07/31 02:47:53;;;;;;;8.55;4.60;;;25.80;86.00;;;;;;5042850;28;20187;-77
2022/07/31 02:50:21;;;;;;;8.50;5.38;;;25.70;86.50;;;;;;5038685;28;20286;-77
2022/07/31 02:52:50;;;;;;;8.23;5.60;;;25.70;86.50;;;;;;5046625;28;20191;-76
2022/07/31 02:55:19;;;;;;;8.80;5.50;;;25.70;86.60;;;;;;5047810;28;20650;-76
2022/07/31 02:57:48;;;;;;;12.43;6.13;;;25.60;87.60;;;;;;5049555;28;20222;-75
2022/07/31 03:00:21;;;;;;;9.20;5.93;;;25.60;86.70;;;;;;5040989;28;20660;-75
2022/07/31 03:02:52;;;;;;;8.85;5.88;;;25.60;86.70;;;;;;5040423;28;20289;-77
2022/07/31 03:05:21;;;;;;;9.15;6.15;;;25.60;87.20;;;;;;5038860;28;20187;-75
2022/07/31 03:07:49;;;;;;;9.07;6.88;;;25.60;87.00;;;;;;5048882;28;20183;-76
2022/07/31 03:10:18;;;;;;;10.63;7.00;;;25.50;87.40;;;;;;5051583;28;20565;-76
2022/07/31 03:12:50;;;;;;;10.77;7.10;;;25.50;87.30;;;;;;5039273;28;20195;-77
2022/07/31 03:15:20;;;;;;;10.52;6.57;;;25.50;87.60;;;;;;5044251;28;20190;-77
2022/07/31 03:17:52;;;;;;;9.35;6.97;;;25.50;87.60;;;;;;5036101;28;20207;-76
2022/07/31 03:20:21;;;;;;;11.75;6.82;;;25.50;87.60;;;;;;5045315;28;20221;-77
2022/07/31 03:22:50;;;;;;;8.52;5.88;;;25.50;88.00;;;;;;5039989;28;20195;-76
2022/07/31 03:25:19;;;;;;;9.63;6.13;;;25.40;88.20;;;;;;5045574;28;20555;-76
2022/07/31 03:27:50;;;;;;;9.18;6.20;;;25.40;88.20;;;;;;5031476;28;20663;-77
2022/07/31 03:30:24;;;;;;;8.60;6.10;;;25.40;88.10;;;;;;5040318;28;20183;-76
2022/07/31 03:32:55;;;;;;;10.30;6.82;;;25.30;88.20;;;;;;5036539;28;20194;-76
2022/07/31 03:35:24;;;;;;;12.50;6.63;;;25.30;88.20;;;;;;5042727;28;20191;-76
2022/07/31 03:37:52;;;;;;;12.27;7.07;;;25.30;88.20;;;;;;5036137;28;20223;-76
2022/07/31 03:40:21;;;;;;;11.20;7.15;;;25.30;88.30;;;;;;5038543;28;20752;-76
2022/07/31 03:42:50;;;;;;;12.68;7.03;;;25.30;88.10;;;;;;5045668;28;20753;-76
2022/07/31 03:45:21;;;;;;;10.93;6.82;;;25.30;88.20;;;;;;5037909;28;20202;-76
2022/07/31 03:47:50;;;;;;;12.07;7.78;;;25.20;88.30;;;;;;5043617;28;20195;-75
2022/07/31 03:50:21;;;;;;;12.45;7.00;;;25.20;88.40;;;;;;5040202;28;20753;-76
2022/07/31 03:52:50;;;;;;;11.80;7.20;;;25.20;88.60;;;;;;5045841;28;20182;-75
2022/07/31 03:55:18;;;;;;;9.38;6.55;;;25.20;88.40;;;;;;5048502;28;20186;-76
2022/07/31 03:57:47;;;;;;;8.15;6.28;;;25.20;88.50;;;;;;5040520;28;20230;-76
2022/07/31 04:00:19;;;;;;;10.02;6.68;;;25.20;88.10;;;;;;5037210;28;21251;-76
2022/07/31 04:02:47;;;;;;;10.30;6.90;;;25.20;88.10;;;;;;5041656;28;20187;-75
2022/07/31 04:05:16;;;;;;;9.32;5.95;;;25.20;88.10;;;;;;5038356;28;20609;-75
2022/07/31 04:07:46;;;;;;;9.20;6.25;;;25.20;88.10;;;;;;5041275;28;20202;-76
2022/07/31 04:10:14;;;;;;;10.85;6.13;;;25.30;88.30;;;;;;5041796;28;20692;-75
2022/07/31 04:12:42;;;;;;;10.32;6.28;;;25.30;88.40;;;;;;5040902;28;20664;-74
2022/07/31 04:15:11;;;;;;;9.05;6.22;;;25.20;88.50;;;;;;5044194;28;21045;-75
2022/07/31 04:17:39;;;;;;;8.80;6.30;;;25.20;88.50;;;;;;5044450;28;20223;-75
2022/07/31 04:20:10;;;;;;;9.15;6.35;;;25.20;88.70;;;;;;5046504;28;20225;-75
2022/07/31 04:22:38;;;;;;;8.98;6.38;;;25.20;88.70;;;;;;5056099;28;20194;-75
2022/07/31 04:25:09;;;;;;;9.55;6.40;;;25.20;88.80;;;;;;5050169;28;20272;-75
2022/07/31 04:27:38;;;;;;;10.43;6.75;;;25.20;89.70;;;;;;5052597;28;20190;-76
2022/07/31 04:30:15;;;;;;;14.48;6.47;;;25.20;88.90;;;;;;5045190;28;20191;-77
2022/07/31 04:32:44;;;;;;;9.52;6.82;;;25.20;89.10;;;;;;5045942;28;20202;-76
2022/07/31 04:35:13;;;;;;;10.65;6.70;;;25.20;88.80;;;;;;5049794;28;20195;-75
2022/07/31 04:37:41;;;;;;;9.07;6.32;;;25.20;89.10;;;;;;5047409;28;20219;-74
2022/07/31 04:40:17;;;;;;;9.05;6.43;;;25.20;89.10;;;;;;5051660;28;20223;-75
2022/07/31 04:42:45;;;;;;;9.90;6.65;;;25.20;89.10;;;;;;5050074;28;20195;-75
2022/07/31 04:45:13;;;;;;;9.95;6.93;;;25.20;88.90;;;;;;5043653;28;20196;-75
2022/07/31 04:47:42;;;;;;;9.85;6.82;;;25.20;90.00;;;;;;5045259;28;20883;-75
2022/07/31 04:50:10;;;;;;;13.73;7.65;;;25.20;88.90;;;;;;5046378;28;20218;-75
2022/07/31 04:52:39;;;;;;;9.23;6.13;;;25.20;89.00;;;;;;5047970;28;20206;-75
2022/07/31 04:55:08;;;;;;;10.65;6.57;;;25.30;88.80;;;;;;5045928;28;20572;-75
2022/07/31 04:57:38;;;;;;;10.65;6.43;;;25.30;88.90;;;;;;5041528;28;20199;-75
2022/07/31 05:00:09;;;;;;;9.15;6.88;;;25.30;88.60;;;;;;5047095;28;20232;-73
2022/07/31 05:02:39;;;;;;;9.48;6.70;;;25.40;88.80;;;;;;5048333;28;20307;-75
2022/07/31 05:05:08;;;;;;;11.10;6.75;;;25.30;88.90;;;;;;5039417;28;20851;-78
2022/07/31 05:07:37;;;;;;;10.88;6.95;;;25.30;88.80;;;;;;5049103;28;20213;-76
2022/07/31 05:10:06;;;;;;;9.65;6.82;;;25.30;88.70;;;;;;5047441;28;20187;-77
2022/07/31 05:12:34;;;;;;;10.73;7.30;;;25.30;88.60;;;;;;5041996;28;20671;-76
2022/07/31 05:15:06;;;;;;;13.93;7.55;;;25.40;88.70;;;;;;5049752;28;20194;-76
2022/07/31 05:17:34;;;;;;;10.10;6.95;;;25.30;88.80;;;;;;5042981;28;20191;-76
2022/07/31 05:20:03;;;;;;;10.82;6.50;;;25.30;88.90;;;;;;5050360;28;20226;-76
2022/07/31 05:22:31;;;;;;;9.20;6.95;;;25.30;88.90;;;;;;5045953;28;20203;-75
2022/07/31 05:25:00;;;;;;;15.25;6.80;;;25.30;89.40;;;;;;5035150;28;20730;-75
2022/07/31 05:27:28;;;;;;;12.02;7.60;;;25.30;89.40;;;;;;5037392;28;20199;-76
2022/07/31 05:30:06;;;;;;;10.27;7.10;;;25.30;89.50;;;;;;5042337;28;20186;-76
2022/07/31 05:32:34;;;;;;;9.43;7.03;;;25.30;89.20;;;;;;5044993;28;20197;-77
2022/07/31 05:35:02;;;;;;;10.13;7.10;;;25.30;89.10;;;;;;5044106;28;20191;-76
2022/07/31 05:37:32;;;;;;;13.43;7.95;;;25.30;89.10;;;;;;5041245;28;20223;-75
2022/07/31 05:40:01;;;;;;;10.55;6.90;;;25.30;89.10;;;;;;5040115;28;20231;-76
2022/07/31 05:42:29;;;;;;;10.18;6.95;;;25.30;88.90;;;;;;5048008;28;20637;-75
2022/07/31 05:44:57;;;;;;;10.30;6.93;;;25.40;88.90;;;;;;5055418;28;20201;-76
2022/07/31 05:47:27;;;;;;;10.82;6.97;;;25.30;88.90;;;;;;5048622;28;20198;-78
2022/07/31 05:50:09;;;;;;;10.27;7.05;;;25.40;88.90;;;;;;5047053;28;20184;-76
2022/07/31 05:52:37;;;;;;;10.75;7.22;;;25.30;88.90;;;;;;5045233;28;20268;-75
2022/07/31 05:55:06;;;;;;;12.27;6.93;;;25.40;89.10;;;;;;5044790;28;20700;-75
2022/07/31 05:57:35;;;;;;;11.23;7.68;;;25.30;89.20;;;;;;5043863;28;20278;-76
2022/07/31 06:00:04;;;;;;;12.20;7.50;;;25.30;89.10;;;;;;5047145;28;20253;-75
2022/07/31 06:02:35;;;;;;;9.55;6.95;;;25.30;89.20;;;;;;5042694;28;20727;-75
2022/07/31 06:05:03;;;;;;;11.88;7.60;;;25.30;89.20;;;;;;5044106;28;20190;-76
2022/07/31 06:07:32;;;;;;;11.35;7.50;;;25.40;89.20;;;;;;5043053;28;20199;-75
2022/07/31 06:10:01;;;;;;;11.95;7.63;;;25.40;89.20;;;;;;5042932;28;20699;-75
2022/07/31 06:12:29;;;;;;;8.98;6.55;;;25.40;89.10;;;;;;5044931;28;20191;-76
2022/07/31 06:14:59;;;;;;;13.85;7.25;;;25.40;89.10;;;;;;5040612;28;20656;-78
2022/07/31 06:17:28;;;;;;;13.82;7.72;;;25.40;89.10;;;;;;5040654;28;20308;-78
2022/07/31 06:20:13;;;;;;;12.45;6.72;;;25.50;89.20;;;;;;5040821;28;20214;-78
2022/07/31 06:22:43;;;;;;;12.25;7.35;;;25.50;89.30;;;;;;5042266;28;20195;-76
2022/07/31 06:25:12;;;;;;;9.90;6.57;;;25.50;89.00;;;;;;5050014;28;20203;-78
2022/07/31 06:27:42;;;;;;;12.77;7.50;;;25.60;89.00;;;;;;5045708;28;20253;-77
2022/07/31 06:30:15;;;;;;;9.68;6.65;;;25.60;88.90;;;;;;5044535;28;20190;-77
2022/07/31 06:32:43;;;;;;;15.88;7.50;;;25.60;88.80;;;;;;5045818;28;20195;-77
2022/07/31 06:35:29;;;;;;;10.80;7.05;;;25.70;89.00;;;;;;5040892;28;20204;-78
2022/07/31 06:37:57;;;;;;;12.20;6.60;;;25.70;89.00;;;;;;5042798;28;20190;-78
2022/07/31 06:40:25;;;;;;;8.52;6.55;;;25.70;88.80;;;;;;5045352;28;20222;-78
2022/07/31 06:42:54;;;;;;;15.80;6.88;;;25.80;88.70;;;;;;5041769;28;20285;-78
2022/07/31 06:45:23;;;;;;;13.60;6.55;;;25.80;88.70;;;;;;5041814;28;20202;-77
2022/07/31 06:48:14;;;;;;;12.55;7.50;;;25.80;88.80;;;;;;5039875;28;20198;-78
2022/07/31 06:50:43;;;;;;;15.63;7.05;;;25.80;88.60;;;;;;5045846;28;20193;-79
2022/07/31 06:53:12;;;;;;;12.88;7.28;;;25.80;88.50;;;;;;5040395;28;20199;-76
2022/07/31 06:55:40;;;;;;;11.65;6.57;;;25.80;88.60;;;;;;5045841;28;20551;-75
2022/07/31 06:58:11;;;;;;;10.73;7.05;;;25.80;88.70;;;;;;5045898;28;20327;-78
2022/07/31 07:00:40;;;;;;;12.23;6.80;;;25.80;88.60;;;;;;5043872;28;20231;-78
2022/07/31 07:03:08;;;;;;;21.67;7.78;;;25.80;88.70;;;;;;5039897;28;21346;-78
2022/07/31 07:05:37;;;;;;;10.77;7.32;;;25.90;88.80;;;;;;5043897;28;20199;-78
2022/07/31 07:08:07;;;;;;;9.05;6.32;;;25.80;88.80;;;;;;5041407;28;20194;-78
2022/07/31 07:10:35;;;;;;;10.75;6.47;;;25.80;89.10;;;;;;5044483;28;20652;-78
2022/07/31 07:13:03;;;;;;;10.48;6.47;;;25.90;88.80;;;;;;5042477;28;20200;-76
2022/07/31 07:15:32;;;;;;;8.80;5.85;;;25.90;88.80;;;;;;5040867;28;20206;-76
2022/07/31 07:18:00;;;;;;;8.27;5.88;;;25.80;88.50;;;;;;5044889;28;20551;-78
2022/07/31 07:20:28;;;;;;;8.88;6.28;;;25.90;88.50;;;;;;5041681;28;20220;-78
2022/07/31 07:22:57;;;;;;;10.77;6.10;;;25.90;88.50;;;;;;5042558;28;20195;-78
2022/07/31 07:25:27;;;;;;;9.55;6.45;;;25.90;88.50;;;;;;5041054;28;20198;-77
2022/07/31 07:27:56;;;;;;;8.05;6.10;;;26.00;88.60;;;;;;5042688;28;20193;-78
2022/07/31 07:30:27;;;;;;;9.75;6.72;;;26.00;88.40;;;;;;5040569;28;20192;-76
2022/07/31 07:32:55;;;;;;;12.00;6.43;;;26.00;88.40;;;;;;5038353;28;20179;-77
2022/07/31 07:35:24;;;;;;;9.52;5.60;;;26.00;88.30;;;;;;5044788;28;20759;-77
2022/07/31 07:37:52;;;;;;;10.25;5.22;;;26.10;89.10;;;;;;5039655;28;20197;-79
2022/07/31 07:40:21;;;;;;;10.88;5.55;;;26.10;88.00;;;;;;5038737;28;20235;-76
2022/07/31 07:42:51;;;;;;;9.95;4.85;;;26.10;87.90;;;;;;5041100;28;20195;-78
2022/07/31 07:45:20;;;;;;;7.97;5.03;;;26.20;87.60;;;;;;5040208;28;20198;-78
2022/07/31 07:47:48;;;;;;;8.60;4.72;;;26.20;87.50;;;;;;5043025;28;20266;-75
2022/07/31 07:50:33;;;;;;;8.00;4.85;;;26.20;87.30;;;;;;5041998;28;20199;-76
2022/07/31 07:53:01;;;;;;;10.15;5.15;;;26.30;86.90;;;;;;5035440;28;20196;-78
2022/07/31 07:55:29;;;;;;;7.60;4.63;;;26.30;86.80;;;;;;5041783;28;20198;-75
2022/07/31 07:58:06;;;;;;;6.32;4.53;;;26.40;86.30;;;;;;5036970;28;20653;-77
2022/07/31 08:00:39;;;;;;;8.38;4.97;;;26.40;85.30;;;;;;5035789;28;20555;-76
2022/07/31 08:03:07;;;;;;;6.80;5.00;;;26.40;84.80;;;;;;5042664;28;20186;-77
2022/07/31 08:05:56;;;;;;;9.80;4.93;;;26.50;84.40;;;;;;5042009;28;20187;-77
2022/07/31 08:08:24;;;;;;;8.55;4.60;;;26.60;84.30;;;;;;5037079;28;20191;-76
2022/07/31 08:10:53;;;;;;;8.85;5.30;;;26.60;84.30;;;;;;5039629;28;20195;-78
2022/07/31 08:13:23;;;;;;;6.15;4.60;;;26.70;83.60;;;;;;5043226;28;20194;-76
2022/07/31 08:15:51;;;;;;;6.10;4.80;;;26.70;83.00;;;;;;5040425;28;20195;-75
2022/07/31 08:18:20;;;;;;;6.38;4.65;;;26.80;82.50;;;;;;5043047;28;20197;-76
2022/07/31 08:20:54;;;;;;;8.35;4.55;;;26.80;82.10;;;;;;5047355;28;20213;-77
2022/07/31 08:23:22;;;;;;;8.02;4.82;;;26.90;82.10;;;;;;5041479;28;20187;-77
2022/07/31 08:25:51;;;;;;;6.85;4.82;;;26.90;81.80;;;;;;5040132;28;20199;-79
2022/07/31 08:28:26;;;;;;;6.35;4.47;;;27.00;80.80;;;;;;5041084;28;20250;-76
2022/07/31 08:30:54;;;;;;;7.70;4.97;;;27.00;80.30;;;;;;5039213;28;20278;-77
2022/07/31 08:33:23;;;;;;;8.82;4.32;;;27.00;80.20;;;;;;5040840;28;20194;-77
2022/07/31 08:35:51;;;;;;;7.35;4.78;;;27.10;80.50;;;;;;5041505;28;20826;-79
2022/07/31 08:38:20;;;;;;;7.75;5.10;;;27.10;80.30;;;;;;5041076;28;20205;-76
2022/07/31 08:40:48;;;;;;;7.47;5.53;;;27.10;79.40;;;;;;5039393;28;20222;-77
2022/07/31 08:43:16;;;;;;;7.60;5.72;;;27.20;79.40;;;;;;5036640;28;20657;-77
2022/07/31 08:46:09;;;;;;;8.07;5.85;;;27.30;79.50;;;;;;5043813;28;20194;-75
2022/07/31 08:48:41;;;;;;;7.10;5.50;;;27.30;79.50;;;;;;5042831;28;20692;-76
2022/07/31 08:51:12;;;;;;;6.97;5.75;;;27.50;79.40;;;;;;5040292;28;20188;-76
2022/07/31 08:53:43;;;;;;;8.55;6.13;;;27.50;79.20;;;;;;5042028;28;20231;-77
2022/07/31 08:56:12;;;;;;;10.73;6.45;;;27.60;79.30;;;;;;5041658;28;20195;-75
2022/07/31 08:58:41;;;;;;;7.78;6.22;;;27.70;79.30;;;;;;5043349;28;20203;-77
2022/07/31 09:01:13;;;;;;;7.78;5.72;;;27.80;79.20;;;;;;5040345;28;20772;-77
2022/07/31 09:03:42;;;;;;;8.52;5.80;;;27.90;79.10;;;;;;5045839;28;20234;-78
2022/07/31 09:06:10;;;;;;;9.55;6.13;;;28.10;78.90;;;;;;5045545;28;20199;-76
2022/07/31 09:08:39;;;;;;;7.45;5.72;;;28.20;78.60;;;;;;5039859;28;20191;-78
2022/07/31 09:11:09;;;;;;;9.63;6.38;;;28.20;78.40;;;;;;5051346;28;20194;-76
2022/07/31 09:13:38;;;;;;;7.47;6.40;;;28.30;77.40;;;;;;5058792;28;20194;-76
2022/07/31 09:16:07;;;;;;;8.55;6.65;;;28.50;76.90;;;;;;5055829;28;20190;-76
2022/07/31 09:18:37;;;;;;;9.27;7.38;;;28.60;76.60;;;;;;5045275;28;20195;-76
2022/07/31 09:21:07;;;;;;;9.38;6.53;;;28.60;73.90;;;;;;5048005;28;20234;-75
2022/07/31 09:23:45;;;;;;;12.85;6.88;;;28.70;73.00;;;;;;5051130;28;20202;-78
2022/07/31 09:26:15;;;;;;;8.15;6.55;;;28.80;72.20;;;;;;5045222;28;20588;-76
2022/07/31 09:28:45;;;;;;;12.57;6.80;;;28.90;72.70;;;;;;5049807;28;20202;-76
2022/07/31 09:31:13;;;;;;;10.15;6.88;;;28.90;72.50;;;;;;5043556;28;20813;-77
2022/07/31 09:33:45;;;;;;;8.43;6.32;;;29.00;72.60;;;;;;5045121;28;20198;-78
2022/07/31 09:36:14;;;;;;;10.25;6.55;;;29.10;72.60;;;;;;5038340;28;20202;-76
2022/07/31 09:38:43;;;;;;;9.75;6.70;;;29.20;71.80;;;;;;5047508;28;20226;-76
2022/07/31 09:41:14;;;;;;;10.15;7.57;;;29.30;71.90;;;;;;5040621;28;20207;-78
2022/07/31 09:44:04;;;;;;;10.60;6.68;;;29.40;71.30;;;;;;5044692;28;20810;-76
2022/07/31 09:46:41;;;;;;;11.95;7.97;;;29.50;69.70;;;;;;5046131;28;20284;-76
2022/07/31 09:49:12;;;;;;;10.02;7.53;;;29.60;68.40;;;;;;5043766;28;20834;-78
2022/07/31 09:51:41;;;;;;;9.52;7.30;;;29.70;68.50;;;;;;5045209;28;20215;-76
2022/07/31 09:54:21;;;;;;;20.42;18.33;;;29.80;68.90;;;;;;5050020;28;20202;-76
2022/07/31 09:56:50;;;;;;;33.65;26.27;;;29.90;68.80;;;;;;5040262;28;20737;-76
2022/07/31 09:59:18;;;;;;;59.20;34.13;;;29.90;68.50;;;;;;5041795;28;20207;-77
2022/07/31 10:01:48;;;;;;;65.95;35.40;;;30.00;68.50;;;;;;5044644;28;20229;-76
2022/07/31 10:04:19;;;;;;;54.80;30.10;;;30.00;68.80;;;;;;5047681;28;20194;-77
2022/07/31 10:06:51;;;;;;;53.45;30.23;;;30.10;68.60;;;;;;5043902;28;20199;-78
2022/07/31 10:09:21;;;;;;;92.05;26.45;;;30.10;68.70;;;;;;5043596;28;20657;-75
2022/07/31 10:11:52;;;;;;;36.25;25.00;;;30.20;68.80;;;;;;5045559;28;20194;-79
2022/07/31 10:14:27;;;;;;;79.05;39.97;;;30.20;68.30;;;;;;5041414;28;20187;-75
2022/07/31 10:16:59;;;;;;;17.98;12.88;;;30.20;68.50;;;;;;5042014;28;20193;-76
2022/07/31 10:19:35;;;;;;;18.05;12.73;;;30.20;68.00;;;;;;5043726;28;20225;-76
2022/07/31 10:22:05;;;;;;;18.55;12.13;;;30.20;68.20;;;;;;5044932;28;20222;-78
2022/07/31 10:24:40;;;;;;;16.15;12.30;;;30.20;68.50;;;;;;5049261;28;20199;-78
2022/07/31 10:27:11;;;;;;;28.45;21.50;;;30.20;68.30;;;;;;5046776;28;20672;-76
2022/07/31 10:29:40;;;;;;;51.92;42.22;;;30.30;67.90;;;;;;5043786;28;20199;-76
2022/07/31 10:32:09;;;;;;;24.02;20.35;;;30.30;68.30;;;;;;5040547;28;20195;-76
2022/07/31 10:34:39;;;;;;;18.10;13.70;;;30.30;67.70;;;;;;5044746;28;20221;-77
2022/07/31 10:37:11;;;;;;;19.92;13.70;;;30.30;67.60;;;;;;5043684;28;20561;-76
2022/07/31 10:39:49;;;;;;;15.90;12.55;;;30.40;67.80;;;;;;5042503;28;20225;-75
2022/07/31 10:42:31;;;;;;;15.40;12.15;;;30.50;67.90;;;;;;5038219;28;20225;-76
2022/07/31 10:45:06;;;;;;;16.30;12.48;;;30.50;66.70;;;;;;5043594;28;20194;-75
2022/07/31 10:47:35;;;;;;;17.33;12.45;;;30.50;66.70;;;;;;5046880;28;20229;-75
2022/07/31 10:50:06;;;;;;;17.33;12.25;;;30.50;67.00;;;;;;5044608;28;20191;-75
2022/07/31 10:52:37;;;;;;;18.30;11.95;;;30.60;66.60;;;;;;5042797;28;20245;-73
2022/07/31 10:55:16;;;;;;;18.70;13.65;;;30.60;65.90;;;;;;5043024;28;20187;-72
2022/07/31 10:57:45;;;;;;;19.98;13.55;;;30.60;65.50;;;;;;5042507;28;20569;-75
2022/07/31 11:00:27;;;;;;;17.42;12.75;;;30.70;65.80;;;;;;5044221;28;20198;-75
2022/07/31 11:02:57;;;;;;;17.67;12.35;;;30.70;65.80;;;;;;5039061;28;20800;-75
2022/07/31 11:05:27;;;;;;;18.35;12.68;;;30.70;65.80;;;;;;5048201;28;20203;-77
2022/07/31 11:08:01;;;;;;;18.10;12.93;;;30.70;66.10;;;;;;5052633;28;20187;-75
2022/07/31 11:10:30;;;;;;;17.10;12.68;;;30.80;66.50;;;;;;5044149;28;20193;-76
2022/07/31 11:13:03;;;;;;;16.88;11.68;;;30.70;65.80;;;;;;5043108;28;20194;-79
2022/07/31 11:15:36;;;;;;;17.88;12.85;;;30.70;65.90;;;;;;5052899;28;20194;-77
2022/07/31 11:18:12;;;;;;;17.70;11.82;;;30.80;66.00;;;;;;5046382;28;20207;-76
2022/07/31 11:21:01;;;;;;;15.30;11.75;;;30.80;65.80;;;;;;5044541;28;20198;-75
2022/07/31 11:23:51;;;;;;;16.25;11.80;;;30.80;66.30;;;;;;5035281;28;20195;-77
2022/07/31 11:26:31;;;;;;;20.33;12.02;;;30.80;65.90;;;;;;5038127;28;20179;-77
2022/07/31 11:29:10;;;;;;;19.15;11.68;;;30.90;66.10;;;;;;5046490;28;20191;-75
2022/07/31 11:32:12;;;;;;;15.40;11.35;;;30.90;66.30;;;;;;5040532;28;20206;-74
2022/07/31 11:34:46;;;;;;;15.82;11.80;;;31.00;66.00;;;;;;5042417;28;20186;-75
2022/07/31 11:37:19;;;;;;;15.75;11.75;;;31.00;65.80;;;;;;5034631;28;20192;-75
2022/07/31 11:39:48;;;;;;;13.95;10.60;;;31.00;65.30;;;;;;5045540;28;20218;-74
2022/07/31 11:42:19;;;;;;;12.93;10.18;;;31.10;65.10;;;;;;5037606;28;20207;-77
2022/07/31 11:45:02;;;;;;;12.20;9.43;;;31.10;65.20;;;;;;5041067;28;20204;-75
2022/07/31 11:47:39;;;;;;;14.80;10.25;;;31.10;64.20;;;;;;5042061;28;20201;-76
2022/07/31 11:50:29;;;;;;;15.63;10.60;;;31.10;64.10;;;;;;5040091;28;20195;-78
2022/07/31 11:53:05;;;;;;;13.23;9.82;;;31.10;63.80;;;;;;5047415;28;20200;-75
2022/07/31 11:55:45;;;;;;;11.07;8.15;;;31.10;63.20;;;;;;5042124;28;20706;-77
2022/07/31 11:58:18;;;;;;;15.98;8.60;;;31.10;62.50;;;;;;5043844;28;20641;-76
2022/07/31 12:00:51;;;;;;;11.05;7.75;;;31.10;61.70;;;;;;5045354;28;20190;-75
2022/07/31 12:03:21;;;;;;;11.18;8.25;;;31.20;61.80;;;;;;5042404;28;20298;-74
2022/07/31 12:05:52;;;;;;;13.27;8.85;;;31.10;61.70;;;;;;5042418;28;20200;-75
2022/07/31 12:08:23;;;;;;;12.48;7.55;;;31.00;62.20;;;;;;5048794;28;20191;-76
2022/07/31 12:10:53;;;;;;;11.40;8.52;;;31.00;62.00;;;;;;5046595;28;20195;-76
2022/07/31 12:13:22;;;;;;;11.68;7.97;;;31.10;61.90;;;;;;5045127;28;20187;-74
2022/07/31 12:15:55;;;;;;;11.70;9.52;;;31.20;62.10;;;;;;5038813;28;20667;-76
2022/07/31 12:18:24;;;;;;;12.38;8.57;;;31.20;62.20;;;;;;5037489;28;20269;-75
2022/07/31 12:20:55;;;;;;;12.90;7.70;;;31.20;62.20;;;;;;5034761;28;20379;-74
2022/07/31 12:23:26;;;;;;;11.32;8.63;;;31.20;62.40;;;;;;5043234;28;20217;-74
2022/07/31 12:26:12;;;;;;;12.57;9.18;;;31.20;62.30;;;;;;5037865;28;20183;-74
2022/07/31 12:28:40;;;;;;;11.85;8.18;;;31.20;62.80;;;;;;5041856;28;20194;-75
2022/07/31 12:31:08;;;;;;;12.18;8.43;;;31.10;62.90;;;;;;5042437;28;20191;-76
2022/07/31 12:33:41;;;;;;;12.23;8.60;;;31.00;62.90;;;;;;5039040;28;20195;-75
2022/07/31 12:36:14;;;;;;;12.80;8.18;;;31.00;63.20;;;;;;5033039;28;20202;-75
2022/07/31 12:38:45;;;;;;;9.80;7.18;;;31.00;63.20;;;;;;5044287;28;20292;-74
2022/07/31 12:41:16;;;;;;;11.13;7.13;;;30.90;63.30;;;;;;5052666;28;20195;-74
2022/07/31 12:43:44;;;;;;;9.95;7.18;;;30.80;63.20;;;;;;5045549;28;20237;-75
2022/07/31 12:46:20;;;;;;;8.27;6.60;;;30.90;63.70;;;;;;5043184;28;20795;-75
2022/07/31 12:48:49;;;;;;;8.70;7.10;;;31.00;63.80;;;;;;5044772;28;20202;-75
2022/07/31 12:51:18;;;;;;;9.00;6.57;;;31.00;63.50;;;;;;5046112;28;20197;-75
2022/07/31 12:54:09;;;;;;;9.40;5.35;;;31.10;63.30;;;;;;5041971;28;20199;-76
2022/07/31 12:56:38;;;;;;;7.95;5.40;;;31.20;63.00;;;;;;5044631;28;20207;-76
2022/07/31 12:59:09;;;;;;;10.90;5.30;;;31.30;62.80;;;;;;5044773;28;20183;-74
2022/07/31 13:01:37;;;;;;;11.38;6.10;;;31.30;61.40;;;;;;5039624;28;20252;-75